Startpagina
METAR-TAF:

METAR-TAF

Vliegvelden :

Barranquilla, Colombia

breedte: 10-53N, lengte: 074-47W, hoogte: 14 m

Actueel weer

Dit bericht is 50 minuten geleden gemaakt, om 08:00 UTC
Wind 6 kt uit het noorden, variërend tussen het noordwesten en het noorden
Temperatuur 27°C
Vochtigheid 84%
Druk 1010 hPa
Zicht 10 km of meer
Verspreide wolken op 1500 ft
Verspreide wolken op 20000 ft

METAR: SKBQ 210800Z 35006KT 310V010 9999 SCT015 SCT200 27/24 A2983 NOSIG

Tijdstip: 03:50 (08:50 UTC)

Verwachting

Dit bericht is 4 uur en het 20 minuten geleden gemaakt, om 04:30 UTC
Verwachting geldig van 21 om 06 UTC tot 22 om 06 UTC
Wind 10 kt uit het noordnoordoosten
Zicht 10 km of meer
Verspreide wolken op 1500 ft

TAF: SKBQ 210430Z 2106/2206 02010KT 9999 SCT015 TX32/2117Z TN25/2110Z

Waarnemingen en weersverwachtingen van meer dan 4000 vliegvelden (METAR en TAF).

De beschikbare stations zijn de gele en rode punten op de kaart.

Ga met uw muis naar het station om de naam te zien.

Klik dan om waarnemingen en weersverwachtingen te zien.

kaart wijzigen: klik op de groene knoppen met een zwart kruis om in te zoomen, op de groene knop met een streepje om uit te zoomen of op de groene pijlen voor aangrenzende kaarten.


METAR-TAF: